createdAt,value
2022-09-13T00:00:26.835Z,8.11
2022-09-13T00:01:26.875Z,7.78
2022-09-13T00:02:26.886Z,7.94
2022-09-13T00:03:26.838Z,7.94
2022-09-13T00:04:26.828Z,7.94
2022-09-13T00:05:26.840Z,7.94
2022-09-13T00:06:26.866Z,7.67
2022-09-13T00:07:26.834Z,7.67
2022-09-13T00:08:26.843Z,7.39
2022-09-13T00:09:26.840Z,7.39
2022-09-13T00:10:26.842Z,7.39
2022-09-13T00:11:26.850Z,7.67
2022-09-13T00:12:26.840Z,7.67
2022-09-13T00:13:26.847Z,7.39
2022-09-13T00:14:26.844Z,7.22
2022-09-13T00:15:26.845Z,7.5
2022-09-13T00:16:26.902Z,7.11
2022-09-13T00:17:26.844Z,7.11
2022-09-13T00:18:26.849Z,7.5
2022-09-13T00:19:26.840Z,7.94
2022-09-13T00:20:26.846Z,7.94
2022-09-13T00:21:26.846Z,7.94
2022-09-13T00:22:26.866Z,7.94
2022-09-13T00:23:26.849Z,7.94
2022-09-13T00:24:26.851Z,7.94
2022-09-13T00:25:26.850Z,7.67
2022-09-13T00:26:26.853Z,7.94
2022-09-13T00:27:26.855Z,7.78
2022-09-13T00:28:26.858Z,7.94
2022-09-13T00:29:26.856Z,7.67
2022-09-13T00:30:26.848Z,7.78
2022-09-13T00:31:26.886Z,7.78
2022-09-13T00:32:26.853Z,7.39
2022-09-13T00:33:26.853Z,7.39
2022-09-13T00:34:26.857Z,7.11
2022-09-13T00:35:26.855Z,6.78
2022-09-13T00:36:26.863Z,6.67
2022-09-13T00:37:26.860Z,7.11
2022-09-13T00:38:26.880Z,6.67
2022-09-13T00:39:26.855Z,6.39
2022-09-13T00:40:26.903Z,6.67
2022-09-13T00:41:26.856Z,6.94
2022-09-13T00:42:26.864Z,6.78
2022-09-13T00:43:26.862Z,6.67
2022-09-13T00:44:26.872Z,6.78
2022-09-13T00:45:26.914Z,6.94
2022-09-13T00:46:26.871Z,7.11
2022-09-13T00:47:26.874Z,7.22
2022-09-13T00:48:26.863Z,7.22
2022-09-13T00:49:26.870Z,7.22
2022-09-13T00:50:26.866Z,7.39
2022-09-13T00:51:26.868Z,7.39
2022-09-13T00:52:26.876Z,7.39
2022-09-13T00:53:26.869Z,7.39
2022-09-13T00:54:26.983Z,7.5
2022-09-13T00:55:26.881Z,7.5
2022-09-13T00:56:26.870Z,7.39
2022-09-13T00:57:26.871Z,7.67
2022-09-13T00:58:26.875Z,7.5
2022-09-13T00:59:26.882Z,7.67
2022-09-13T01:00:26.881Z,7.67
2022-09-13T01:01:26.930Z,7.22
2022-09-13T01:02:26.949Z,7.5
2022-09-13T01:03:26.873Z,7.5
2022-09-13T01:04:26.874Z,7.5
2022-09-13T01:05:26.877Z,7.39
2022-09-13T01:06:26.882Z,7.22
2022-09-13T01:07:26.875Z,6.94
2022-09-13T01:08:26.883Z,6.94
2022-09-13T01:09:26.881Z,7.11
2022-09-13T01:10:26.899Z,7.11
2022-09-13T01:11:26.887Z,6.78
2022-09-13T01:12:26.883Z,6.67
2022-09-13T01:13:26.893Z,6.67
2022-09-13T01:14:26.883Z,6.67
2022-09-13T01:15:26.881Z,6.67
2022-09-13T01:16:26.936Z,6.67
2022-09-13T01:17:26.886Z,6.5
2022-09-13T01:18:26.896Z,6.78
2022-09-13T01:19:26.883Z,6.67
2022-09-13T01:20:26.887Z,6.5
2022-09-13T01:21:26.889Z,6.39
2022-09-13T01:22:26.897Z,6.94
2022-09-13T01:23:26.895Z,7.11
2022-09-13T01:24:26.893Z,7.11
2022-09-13T01:25:26.900Z,7.11
2022-09-13T01:26:27.000Z,7.11
2022-09-13T01:27:26.895Z,7.11
2022-09-13T01:28:26.892Z,7.11
2022-09-13T01:29:26.899Z,7.11
2022-09-13T01:30:26.901Z,7.5
2022-09-13T01:31:26.932Z,7.39
2022-09-13T01:32:26.896Z,7.11
2022-09-13T01:33:26.901Z,7.11
2022-09-13T01:34:26.894Z,6.78
2022-09-13T01:35:26.901Z,6.67
2022-09-13T01:36:26.898Z,6.67
2022-09-13T01:37:26.895Z,6.67
2022-09-13T01:38:26.898Z,6.5
2022-09-13T01:39:26.896Z,6.67
2022-09-13T01:40:26.894Z,6.67
2022-09-13T01:41:26.899Z,6.67
2022-09-13T01:42:27.095Z,6.94
2022-09-13T01:43:26.894Z,6.67
2022-09-13T01:44:26.903Z,6.5
2022-09-13T01:45:26.980Z,6.06
2022-09-13T01:46:26.915Z,6.67
2022-09-13T01:47:26.896Z,6.94
2022-09-13T01:48:26.904Z,6.94
2022-09-13T01:49:26.907Z,7.22
2022-09-13T01:50:26.909Z,7.39
2022-09-13T01:51:26.900Z,7.11
2022-09-13T01:52:26.900Z,7.22
2022-09-13T01:53:26.900Z,6.94
2022-09-13T01:54:26.906Z,6.94
2022-09-13T01:55:26.904Z,6.94
2022-09-13T01:56:26.909Z,6.78
2022-09-13T01:57:26.904Z,6.67
2022-09-13T01:58:26.929Z,6.67
2022-09-13T01:59:26.913Z,6.67
2022-09-13T02:00:26.902Z,6.22
2022-09-13T02:01:26.958Z,6.39
2022-09-13T02:02:26.977Z,5.94
2022-09-13T02:03:26.911Z,6.39
2022-09-13T02:04:26.905Z,6.22
2022-09-13T02:05:26.907Z,6.39
2022-09-13T02:06:26.911Z,6.06
2022-09-13T02:07:26.907Z,6.22
2022-09-13T02:08:26.917Z,6.67
2022-09-13T02:09:26.906Z,6.78
2022-09-13T02:10:26.906Z,6.5
2022-09-13T02:11:26.907Z,6.78
2022-09-13T02:12:26.907Z,6.78
2022-09-13T02:13:26.916Z,6.94
2022-09-13T02:14:26.937Z,6.39
2022-09-13T02:15:26.897Z,6.67
2022-09-13T02:16:26.951Z,6.67
2022-09-13T02:17:26.918Z,6.67
2022-09-13T02:18:26.910Z,6.67
2022-09-13T02:19:26.915Z,6.67
2022-09-13T02:20:26.920Z,6.5
2022-09-13T02:21:26.914Z,6.67
2022-09-13T02:22:26.909Z,6.5
2022-09-13T02:23:26.916Z,6.67
2022-09-13T02:24:26.910Z,6.67
2022-09-13T02:25:26.908Z,6.67
2022-09-13T02:26:26.904Z,6.67
2022-09-13T02:27:26.909Z,6.67
2022-09-13T02:28:26.911Z,6.78
2022-09-13T02:29:26.918Z,6.5
2022-09-13T02:30:27.066Z,6.06
2022-09-13T02:31:26.957Z,6.22
2022-09-13T02:32:26.915Z,6.22
2022-09-13T02:33:26.918Z,6.22
2022-09-13T02:34:26.920Z,5.94
2022-09-13T02:35:26.920Z,6.22
2022-09-13T02:36:26.917Z,6.39
2022-09-13T02:37:26.916Z,6.22
2022-09-13T02:38:26.904Z,6.22
2022-09-13T02:39:26.906Z,6.22
2022-09-13T02:40:26.914Z,6.39
2022-09-13T02:41:26.917Z,6.67
2022-09-13T02:42:26.915Z,6.5
2022-09-13T02:43:26.924Z,6.67
2022-09-13T02:44:26.921Z,6.5
2022-09-13T02:45:26.961Z,6.5
2022-09-13T02:46:27.057Z,7.11
2022-09-13T02:47:26.928Z,6.94
2022-09-13T02:48:26.923Z,6.67
2022-09-13T02:49:26.926Z,7.11
2022-09-13T02:50:26.925Z,6.94
2022-09-13T02:51:26.922Z,7.11
2022-09-13T02:52:26.911Z,6.78
2022-09-13T02:53:26.927Z,6.94
2022-09-13T02:54:26.920Z,6.78
2022-09-13T02:55:26.923Z,6.94
2022-09-13T02:56:26.920Z,6.78
2022-09-13T02:57:26.921Z,6.67
2022-09-13T02:58:27.328Z,6.5
2022-09-13T02:59:26.925Z,6.67
2022-09-13T03:00:26.926Z,6.67
2022-09-13T03:01:26.999Z,6.5
2022-09-13T03:02:27.021Z,6.67
2022-09-13T03:03:26.921Z,6.94
2022-09-13T03:04:26.917Z,6.94
2022-09-13T03:05:26.921Z,7.11
2022-09-13T03:06:26.925Z,7.22
2022-09-13T03:07:26.921Z,7.39
2022-09-13T03:08:26.914Z,7.39
2022-09-13T03:09:26.920Z,7.22
2022-09-13T03:10:26.923Z,7.39
2022-09-13T03:11:26.911Z,7.11
2022-09-13T03:12:26.922Z,6.78
2022-09-13T03:13:26.925Z,6.67
2022-09-13T03:14:26.922Z,6.78
2022-09-13T03:15:26.924Z,6.78
2022-09-13T03:16:26.947Z,6.94
2022-09-13T03:17:26.927Z,7.11
2022-09-13T03:18:26.944Z,6.94
2022-09-13T03:19:26.927Z,7.22
2022-09-13T03:20:26.922Z,7.22
2022-09-13T03:21:26.920Z,7.22
2022-09-13T03:22:26.918Z,6.94
2022-09-13T03:23:26.919Z,7.11
2022-09-13T03:24:26.923Z,6.94
2022-09-13T03:25:26.921Z,7.11
2022-09-13T03:26:26.922Z,7.11
2022-09-13T03:27:26.929Z,7.11
2022-09-13T03:28:26.917Z,7.22
2022-09-13T03:29:26.925Z,7.22
2022-09-13T03:30:26.926Z,7.39
2022-09-13T03:31:26.988Z,7.5
2022-09-13T03:32:26.926Z,7.5
2022-09-13T03:33:26.922Z,7.22
2022-09-13T03:34:26.948Z,7.5
2022-09-13T03:35:26.935Z,7.67
2022-09-13T03:36:26.933Z,7.67
2022-09-13T03:37:26.933Z,7.67
2022-09-13T03:38:26.927Z,7.78
2022-09-13T03:39:26.932Z,7.67
2022-09-13T03:40:26.928Z,7.5
2022-09-13T03:41:26.933Z,7.78
2022-09-13T03:42:26.926Z,7.94
2022-09-13T03:43:26.933Z,7.94
2022-09-13T03:44:26.928Z,7.5
2022-09-13T03:45:26.963Z,7.94
2022-09-13T03:46:26.930Z,7.94
2022-09-13T03:47:26.934Z,7.67
2022-09-13T03:48:26.928Z,7.67
2022-09-13T03:49:26.931Z,7.94
2022-09-13T03:50:27.061Z,7.94
2022-09-13T03:51:26.935Z,7.78
2022-09-13T03:52:26.938Z,8.11
2022-09-13T03:53:26.945Z,7.94
2022-09-13T03:54:26.943Z,7.94
2022-09-13T03:55:26.940Z,7.94
2022-09-13T03:56:26.946Z,7.78
2022-09-13T03:57:26.952Z,7.39
2022-09-13T03:58:26.946Z,7.94
2022-09-13T03:59:26.951Z,7.94
2022-09-13T04:00:26.940Z,7.94
2022-09-13T04:01:27.004Z,7.94
2022-09-13T04:02:27.000Z,7.94
2022-09-13T04:03:26.952Z,8.11
2022-09-13T04:04:26.952Z,8.28
2022-09-13T04:05:26.961Z,7.78
2022-09-13T04:06:26.977Z,7.94
2022-09-13T04:07:26.962Z,8.11
2022-09-13T04:08:26.959Z,7.67
2022-09-13T04:09:26.957Z,7.94
2022-09-13T04:10:26.951Z,7.94
2022-09-13T04:11:26.961Z,8.28
2022-09-13T04:12:26.958Z,7.94
2022-09-13T04:13:26.970Z,8.28
2022-09-13T04:14:26.974Z,7.94
2022-09-13T04:15:26.963Z,8.11
2022-09-13T04:16:27.007Z,8.11
2022-09-13T04:17:26.958Z,8.28
2022-09-13T04:18:26.955Z,8.11
2022-09-13T04:19:26.967Z,7.94
2022-09-13T04:20:26.965Z,7.94
2022-09-13T04:21:26.964Z,7.94
2022-09-13T04:22:26.984Z,7.94
2022-09-13T04:23:26.970Z,7.94
2022-09-13T04:24:26.966Z,7.94
2022-09-13T04:25:26.964Z,7.94
2022-09-13T04:26:26.976Z,7.78
2022-09-13T04:27:26.976Z,7.94
2022-09-13T04:28:26.970Z,7.94
2022-09-13T04:29:26.973Z,7.78
2022-09-13T04:30:26.975Z,7.94
2022-09-13T04:31:27.051Z,7.94
2022-09-13T04:32:26.980Z,8.11
2022-09-13T04:33:26.986Z,7.39
2022-09-13T04:34:26.987Z,7.94
2022-09-13T04:35:26.979Z,7.94
2022-09-13T04:36:26.994Z,7.94
2022-09-13T04:37:26.989Z,7.78
2022-09-13T04:38:27.014Z,7.94
2022-09-13T04:39:26.998Z,7.94
2022-09-13T04:40:26.998Z,7.94
2022-09-13T04:41:27.003Z,7.94
2022-09-13T04:42:26.996Z,7.94
2022-09-13T04:43:27.006Z,7.94
2022-09-13T04:44:27.008Z,7.78
2022-09-13T04:45:27.012Z,7.94
2022-09-13T04:46:27.014Z,7.94
2022-09-13T04:47:27.008Z,7.94
2022-09-13T04:48:27.017Z,7.94
2022-09-13T04:49:27.012Z,8.11
2022-09-13T04:50:27.008Z,7.78
2022-09-13T04:51:27.013Z,7.94
2022-09-13T04:52:27.019Z,7.94
2022-09-13T04:53:27.022Z,8.28
2022-09-13T04:54:27.097Z,7.5
2022-09-13T04:55:27.022Z,7.78
2022-09-13T04:56:27.021Z,7.78
2022-09-13T04:57:27.023Z,7.94
2022-09-13T04:58:27.029Z,7.78
2022-09-13T04:59:27.026Z,7.94
2022-09-13T05:00:27.028Z,7.94
2022-09-13T05:01:27.978Z,7.78
2022-09-13T05:02:27.055Z,7.94
2022-09-13T05:03:27.033Z,7.94
2022-09-13T05:04:27.027Z,7.78
2022-09-13T05:05:27.037Z,7.67
2022-09-13T05:06:27.038Z,7.78
2022-09-13T05:07:27.041Z,7.78
2022-09-13T05:08:27.038Z,7.78
2022-09-13T05:09:27.043Z,7.94
2022-09-13T05:10:27.071Z,7.78
2022-09-13T05:11:27.051Z,7.78
2022-09-13T05:12:27.052Z,7.94
2022-09-13T05:13:27.054Z,7.67
2022-09-13T05:14:27.051Z,7.94
2022-09-13T05:15:27.060Z,7.94
2022-09-13T05:16:27.124Z,7.94
2022-09-13T05:17:27.061Z,7.67
2022-09-13T05:18:27.060Z,7.67
2022-09-13T05:19:27.065Z,7.78
2022-09-13T05:20:27.065Z,7.94
2022-09-13T05:21:27.073Z,7.78
2022-09-13T05:22:27.071Z,7.78
2022-09-13T05:23:27.071Z,7.94
2022-09-13T05:24:27.075Z,7.94
2022-09-13T05:25:27.078Z,7.94
2022-09-13T05:26:27.105Z,7.94
2022-09-13T05:27:27.078Z,7.94
2022-09-13T05:28:27.081Z,7.94
2022-09-13T05:29:27.084Z,7.67
2022-09-13T05:30:27.080Z,7.94
2022-09-13T05:31:27.152Z,7.78
2022-09-13T05:32:27.092Z,7.94
2022-09-13T05:33:27.090Z,7.94
2022-09-13T05:34:27.097Z,7.78
2022-09-13T05:35:27.087Z,7.94
2022-09-13T05:36:27.095Z,8.11
2022-09-13T05:37:27.098Z,8.11
2022-09-13T05:38:27.095Z,8.11
2022-09-13T05:39:33.776Z,7.94
2022-09-13T05:40:27.160Z,7.94
2022-09-13T05:41:27.100Z,8.39
2022-09-13T05:42:27.116Z,7.94
2022-09-13T05:43:27.108Z,8.39
2022-09-13T05:44:27.096Z,8.39
2022-09-13T05:45:27.107Z,8.28
2022-09-13T05:46:27.141Z,8.28
2022-09-13T05:47:27.100Z,8.28
2022-09-13T05:48:27.102Z,8.39
2022-09-13T05:49:27.106Z,8.61
2022-09-13T05:50:54.092Z,8.39
2022-09-13T05:51:27.106Z,7.78
2022-09-13T05:52:27.111Z,8.28
2022-09-13T05:53:27.115Z,8.28
2022-09-13T05:54:27.116Z,8.39
2022-09-13T05:55:27.124Z,8.33
2022-09-13T05:56:27.117Z,8.28
2022-09-13T05:57:27.118Z,8.28
2022-09-13T05:58:27.151Z,8.28
2022-09-13T05:59:27.122Z,8.39
2022-09-13T06:00:27.121Z,8.39
2022-09-13T06:01:27.170Z,8.5
2022-09-13T06:02:27.152Z,8.11
2022-09-13T06:03:27.130Z,8.5
2022-09-13T06:04:27.123Z,8.5
2022-09-13T06:05:31.245Z,8.39
2022-09-13T06:06:27.127Z,8.39
2022-09-13T06:07:27.125Z,8.39
2022-09-13T06:08:27.137Z,8.28
2022-09-13T06:09:27.134Z,8.11
2022-09-13T06:10:27.132Z,8.11
2022-09-13T06:11:27.136Z,8.5
2022-09-13T06:12:27.137Z,8.39
2022-09-13T06:13:27.141Z,7.94
2022-09-13T06:14:27.155Z,8.11
2022-09-13T06:15:27.140Z,8.28
2022-09-13T06:16:27.264Z,8.39
2022-09-13T06:17:27.145Z,8.39
2022-09-13T06:18:27.143Z,7.94
2022-09-13T06:19:27.140Z,8.39
2022-09-13T06:20:27.146Z,8.5
2022-09-13T06:21:29.246Z,8.39
2022-09-13T06:22:27.152Z,8.39
2022-09-13T06:23:27.133Z,8.28
2022-09-13T06:24:27.145Z,8.11
2022-09-13T06:25:27.146Z,8.11
2022-09-13T06:26:27.143Z,7.94
2022-09-13T06:27:27.145Z,8.39
2022-09-13T06:28:27.143Z,8.28
2022-09-13T06:29:27.153Z,8.28
2022-09-13T06:30:27.191Z,8.28
2022-09-13T06:31:27.387Z,8.39
2022-09-13T06:32:27.157Z,8.39
2022-09-13T06:33:27.156Z,7.94
2022-09-13T06:34:31.080Z,8.11
2022-09-13T06:35:27.167Z,8.39
2022-09-13T06:36:27.165Z,8.39
2022-09-13T06:37:27.157Z,8.39
2022-09-13T06:38:27.164Z,8.5
2022-09-13T06:39:27.170Z,8.28
2022-09-13T06:40:27.193Z,8.11
2022-09-13T06:41:27.198Z,8.11
2022-09-13T06:42:27.153Z,8.28
2022-09-13T06:43:27.167Z,8.39
2022-09-13T06:44:27.166Z,8.39
2022-09-13T06:45:27.169Z,8.28
2022-09-13T06:46:27.268Z,8.5
2022-09-13T06:47:27.162Z,8.39
2022-09-13T06:48:27.163Z,8.39
2022-09-13T06:49:27.172Z,8.11
2022-09-13T06:50:27.170Z,8.28
2022-09-13T06:51:27.177Z,8.28
2022-09-13T06:52:27.171Z,7.94
2022-09-13T06:53:27.171Z,8.39
2022-09-13T06:54:27.167Z,8.5
2022-09-13T06:55:27.170Z,8.28
2022-09-13T06:56:27.170Z,8.39
2022-09-13T06:57:27.175Z,8.39
2022-09-13T06:58:27.172Z,8.28
2022-09-13T06:59:27.178Z,8.28
2022-09-13T07:00:27.179Z,8.39
2022-09-13T07:01:27.302Z,8.39
2022-09-13T07:02:27.253Z,8.39
2022-09-13T07:03:27.204Z,8.39
2022-09-13T07:04:27.191Z,8.39
2022-09-13T07:05:27.189Z,8.39
2022-09-13T07:06:27.197Z,8.78
2022-09-13T07:07:27.197Z,8.94
2022-09-13T07:08:27.186Z,8.78
2022-09-13T07:09:27.199Z,8.5
2022-09-13T07:10:27.197Z,8.61
2022-09-13T07:11:27.198Z,8.78
2022-09-13T07:12:27.199Z,9.06
2022-09-13T07:13:27.207Z,9.22
2022-09-13T07:14:27.204Z,9.39
2022-09-13T07:15:27.205Z,9.39
2022-09-13T07:16:27.199Z,9.22
2022-09-13T07:17:30.830Z,9.22
2022-09-13T07:18:27.221Z,9.22
2022-09-13T07:19:27.205Z,9.22
2022-09-13T07:20:27.204Z,9.06
2022-09-13T07:21:27.198Z,9.06
2022-09-13T07:22:27.203Z,8.94
2022-09-13T07:23:27.224Z,8.94
2022-09-13T07:24:27.232Z,9.39
2022-09-13T07:25:27.204Z,9.06
2022-09-13T07:26:27.203Z,9.22
2022-09-13T07:27:27.211Z,9.06
2022-09-13T07:28:27.508Z,9.22
2022-09-13T07:29:27.210Z,8.78
2022-09-13T07:30:27.208Z,8.61
2022-09-13T07:31:27.255Z,8.78
2022-09-13T07:32:27.215Z,9.06
2022-09-13T07:33:27.224Z,9.5
2022-09-13T07:34:27.319Z,9.5
2022-09-13T07:35:27.229Z,9.22
2022-09-13T07:36:27.218Z,9.78
2022-09-13T07:37:27.223Z,9.94
2022-09-13T07:38:27.219Z,10.11
2022-09-13T07:39:27.224Z,10.11
2022-09-13T07:40:27.228Z,10.56
2022-09-13T07:41:27.232Z,10.83
2022-09-13T07:42:27.227Z,11
2022-09-13T07:43:27.224Z,10.83
2022-09-13T07:44:27.233Z,10.83
2022-09-13T07:45:27.236Z,10.67
2022-09-13T07:46:27.286Z,11.11
2022-09-13T07:47:27.239Z,11
2022-09-13T07:48:30.447Z,10.67
2022-09-13T07:49:27.238Z,10.22
2022-09-13T07:50:27.257Z,10.11
2022-09-13T07:51:27.231Z,10.22
2022-09-13T07:52:27.233Z,10.22
2022-09-13T07:53:27.247Z,10.22
2022-09-13T07:54:27.253Z,10.56
2022-09-13T07:55:27.250Z,10.39
2022-09-13T07:56:27.240Z,11
2022-09-13T07:57:27.234Z,11.28
2022-09-13T07:58:27.239Z,11.61
2022-09-13T07:59:30.145Z,11.83
2022-09-13T08:00:27.232Z,12.44
2022-09-13T08:01:27.277Z,12.44
2022-09-13T08:02:27.301Z,13.17
2022-09-13T08:03:27.236Z,13.06
2022-09-13T08:04:27.245Z,12.72
2022-09-13T08:05:27.248Z,12.89
2022-09-13T08:06:27.278Z,12.56
2022-09-13T08:07:27.246Z,12.72
2022-09-13T08:08:27.255Z,13.06
2022-09-13T08:09:27.244Z,12.72
2022-09-13T08:10:27.263Z,12.11
2022-09-13T08:11:27.255Z,11.72
2022-09-13T08:12:27.248Z,11.61
2022-09-13T08:13:27.246Z,11.72
2022-09-13T08:14:27.257Z,11.28
2022-09-13T08:15:27.265Z,11
2022-09-13T08:16:27.256Z,10.83
2022-09-13T08:17:49.511Z,11.44
2022-09-13T08:18:49.516Z,11
2022-09-13T08:19:49.529Z,10.83
2022-09-13T08:20:49.517Z,11.44
2022-09-13T08:21:49.626Z,11
2022-09-13T08:22:49.515Z,10.83
2022-09-13T08:23:49.584Z,11
2022-09-13T08:24:49.506Z,11.11
2022-09-13T08:25:49.511Z,11
2022-09-13T08:26:49.514Z,11.11
2022-09-13T08:27:49.514Z,11
2022-09-13T08:28:49.510Z,11.44
2022-09-13T08:29:49.523Z,11.28
2022-09-13T08:30:49.560Z,11.28
2022-09-13T08:31:49.526Z,11.83
2022-09-13T08:32:49.509Z,11.83
2022-09-13T08:33:49.807Z,11.61
2022-09-13T08:34:49.514Z,11.83
2022-09-13T08:35:49.522Z,11.61
2022-09-13T08:36:49.513Z,11.72
2022-09-13T08:37:49.626Z,12.11
2022-09-13T08:38:49.533Z,12.11
2022-09-13T08:39:49.547Z,11.83
2022-09-13T08:40:49.534Z,12.28
2022-09-13T08:41:49.521Z,11.94
2022-09-13T08:42:49.532Z,11.94
2022-09-13T08:43:49.698Z,12.28
2022-09-13T08:44:49.533Z,11.83
2022-09-13T08:45:49.558Z,12.11
2022-09-13T08:46:49.526Z,11.94
2022-09-13T08:47:49.530Z,12.44
2022-09-13T08:48:49.522Z,12.72
2022-09-13T08:49:49.533Z,13.17
2022-09-13T08:50:49.527Z,13.17
2022-09-13T08:51:49.522Z,13.17
2022-09-13T08:52:49.532Z,13.17
2022-09-13T08:53:49.822Z,13.06
2022-09-13T08:54:49.531Z,13.17
2022-09-13T08:55:49.538Z,12.56
2022-09-13T08:56:49.532Z,13.5
2022-09-13T08:57:49.535Z,14.06
2022-09-13T08:58:49.537Z,13.94
2022-09-13T08:59:49.532Z,14.06
2022-09-13T09:00:49.540Z,14.67
2022-09-13T09:01:49.595Z,14.56
2022-09-13T09:02:49.583Z,14.39
2022-09-13T09:03:49.686Z,13.94
2022-09-13T09:04:49.534Z,14.56
2022-09-13T09:05:49.536Z,14.06
2022-09-13T09:06:49.541Z,14.06
2022-09-13T09:07:49.532Z,14.56
2022-09-13T09:08:49.545Z,15
2022-09-13T09:09:49.557Z,14.89
2022-09-13T09:10:49.540Z,15.17
2022-09-13T09:11:49.539Z,15.17
2022-09-13T09:12:49.545Z,15.89
2022-09-13T09:13:49.670Z,16.39
2022-09-13T09:14:49.533Z,15.89
2022-09-13T09:15:49.573Z,16.06
2022-09-13T09:16:49.551Z,16.39
2022-09-13T09:17:49.544Z,16.67
2022-09-13T09:18:49.544Z,15.72
2022-09-13T09:19:49.540Z,16.06
2022-09-13T09:20:49.549Z,16.83
2022-09-13T09:21:49.542Z,17.17
2022-09-13T09:22:49.558Z,16.67
2022-09-13T09:23:49.663Z,15.89
2022-09-13T09:24:49.543Z,15.89
2022-09-13T09:25:49.579Z,16.83
2022-09-13T09:26:49.540Z,16.83
2022-09-13T09:27:49.542Z,16.83
2022-09-13T09:28:49.544Z,16.5
2022-09-13T09:29:49.548Z,16.22
2022-09-13T09:30:49.606Z,15.56
2022-09-13T09:31:49.550Z,16.39
2022-09-13T09:32:49.557Z,16.67
2022-09-13T09:33:49.679Z,16.67
2022-09-13T09:34:49.549Z,16.06
2022-09-13T09:35:49.553Z,16.83
2022-09-13T09:36:49.546Z,16.5
2022-09-13T09:37:49.551Z,16.06
2022-09-13T09:38:49.603Z,15.44
2022-09-13T09:39:49.615Z,15.44
2022-09-13T09:40:49.549Z,15.44
2022-09-13T09:41:49.590Z,16.06
2022-09-13T09:42:49.550Z,16.22
2022-09-13T09:43:49.653Z,16.39
2022-09-13T09:44:49.551Z,17
2022-09-13T09:45:49.612Z,17.5
2022-09-13T09:46:49.561Z,17.94
2022-09-13T09:47:49.563Z,17.33
2022-09-13T09:48:49.564Z,16.56
2022-09-13T09:49:49.577Z,17
2022-09-13T09:50:49.564Z,17
2022-09-13T09:51:49.563Z,17.83
2022-09-13T09:52:49.566Z,17.5
2022-09-13T09:53:49.656Z,17.17
2022-09-13T09:54:49.561Z,17.33
2022-09-13T09:55:49.562Z,17.33
2022-09-13T09:56:49.566Z,18.28
2022-09-13T09:57:49.582Z,17.94
2022-09-13T09:58:49.563Z,17.17
2022-09-13T09:59:49.564Z,16.72
2022-09-13T10:00:49.566Z,16.56
2022-09-13T10:01:49.611Z,16.72
2022-09-13T10:02:49.588Z,17
2022-09-13T10:03:49.711Z,16.72
2022-09-13T10:04:49.572Z,16.56
2022-09-13T10:05:49.569Z,17.5
2022-09-13T10:06:49.561Z,17.83
2022-09-13T10:07:49.568Z,17.83
2022-09-13T10:08:49.565Z,17.17
2022-09-13T10:09:49.568Z,18.17
2022-09-13T10:10:49.570Z,18.61
2022-09-13T10:11:49.563Z,18.44
2022-09-13T10:12:49.561Z,17.83
2022-09-13T10:13:49.747Z,17.67
2022-09-13T10:14:49.570Z,17.94
2022-09-13T10:15:49.569Z,17.94
2022-09-13T10:16:49.585Z,18.78
2022-09-13T10:17:49.569Z,19.06
2022-09-13T10:18:49.575Z,19.28
2022-09-13T10:19:49.574Z,19.78
2022-09-13T10:20:49.572Z,19.44
2022-09-13T10:21:49.572Z,19.56
2022-09-13T10:22:49.575Z,19.28
2022-09-13T10:23:49.574Z,18.94
2022-09-13T10:24:49.579Z,18.94
2022-09-13T10:25:49.573Z,19.44
2022-09-13T10:26:49.571Z,18.94
2022-09-13T10:27:49.574Z,19.06
2022-09-13T10:28:49.719Z,18.94
2022-09-13T10:29:49.593Z,19.78
2022-09-13T10:30:49.616Z,19.94
2022-09-13T10:31:49.575Z,19.78
2022-09-13T10:32:49.569Z,19.94
2022-09-13T10:33:49.576Z,20.22
2022-09-13T10:34:49.575Z,20.72
2022-09-13T10:35:49.579Z,20.22
2022-09-13T10:36:52.407Z,20.22
2022-09-13T10:37:49.574Z,20.83
2022-09-13T10:38:49.701Z,21.39
2022-09-13T10:39:49.634Z,21.39
2022-09-13T10:40:49.580Z,20.72
2022-09-13T10:41:49.580Z,20.72
2022-09-13T10:42:49.578Z,20.33
2022-09-13T10:43:49.582Z,20.33
2022-09-13T10:44:49.571Z,20.22
2022-09-13T10:45:49.743Z,20.22
2022-09-13T10:46:49.574Z,20.83
2022-09-13T10:47:50.707Z,20.83
2022-09-13T10:48:49.730Z,20.56
2022-09-13T10:49:49.578Z,20.33
2022-09-13T10:50:49.577Z,19.94
2022-09-13T10:51:49.584Z,20.33
2022-09-13T10:52:49.580Z,19.56
2022-09-13T10:53:49.587Z,19.94
2022-09-13T10:54:49.586Z,19.78
2022-09-13T10:55:49.575Z,20.22
2022-09-13T10:56:49.582Z,20.72
2022-09-13T10:57:49.590Z,20.83
2022-09-13T10:58:49.582Z,21
2022-09-13T10:59:49.585Z,20.72
2022-09-13T11:00:49.619Z,20.83
2022-09-13T11:01:49.685Z,21.39
2022-09-13T11:02:49.594Z,21.39
2022-09-13T11:03:49.676Z,21.56
2022-09-13T11:04:49.590Z,21.89
2022-09-13T11:05:49.585Z,22.06
2022-09-13T11:06:49.582Z,21.89
2022-09-13T11:07:49.577Z,22.39
2022-09-13T11:08:49.582Z,22.39
2022-09-13T11:09:49.596Z,22.06
2022-09-13T11:10:49.594Z,21.89
2022-09-13T11:11:49.582Z,21.72
2022-09-13T11:12:49.588Z,21.56
2022-09-13T11:13:49.677Z,21.11
2022-09-13T11:14:49.598Z,22.06
2022-09-13T11:15:49.598Z,22.56
2022-09-13T11:16:49.614Z,23.11
2022-09-13T11:17:49.620Z,23.44
2022-09-13T11:18:49.594Z,23.28
2022-09-13T11:19:51.324Z,22.61
2022-09-13T11:20:49.596Z,22.61
2022-09-13T11:21:49.595Z,23.11
2022-09-13T11:22:49.586Z,22.06
2022-09-13T11:23:49.677Z,21.89
2022-09-13T11:24:49.599Z,22.39
2022-09-13T11:25:49.599Z,22.94
2022-09-13T11:26:49.595Z,22.61
2022-09-13T11:27:49.607Z,22.78
2022-09-13T11:28:49.590Z,23.28
2022-09-13T11:29:49.596Z,22.61
2022-09-13T11:30:49.621Z,22.78
2022-09-13T11:31:49.645Z,22.39
2022-09-13T11:32:49.595Z,22.61
2022-09-13T11:33:49.802Z,21.56
2022-09-13T11:34:49.604Z,21.89
2022-09-13T11:35:49.614Z,22.39
2022-09-13T11:36:49.607Z,22.94
2022-09-13T11:37:49.605Z,23.11
2022-09-13T11:38:49.600Z,22.22
2022-09-13T11:39:49.635Z,22.22
2022-09-13T11:40:49.593Z,22.06
2022-09-13T11:41:49.602Z,22.22
2022-09-13T11:42:49.600Z,22.39
2022-09-13T11:43:49.698Z,22.22
2022-09-13T11:44:49.608Z,22.78
2022-09-13T11:45:49.631Z,23.28
2022-09-13T11:46:49.599Z,23.11
2022-09-13T11:47:49.597Z,23.28
2022-09-13T11:48:49.605Z,23.28
2022-09-13T11:49:49.715Z,23.11
2022-09-13T11:50:49.608Z,22.94
2022-09-13T11:51:49.605Z,23.11
2022-09-13T11:52:49.613Z,24.17
2022-09-13T11:53:49.659Z,24.67
2022-09-13T11:54:49.605Z,24.17
2022-09-13T11:55:49.614Z,23.44
2022-09-13T11:56:49.607Z,24
2022-09-13T11:57:49.604Z,23.83
2022-09-13T11:58:49.604Z,23.83
2022-09-13T11:59:49.607Z,23.67
2022-09-13T12:00:49.613Z,24
2022-09-13T12:01:49.817Z,24.5
2022-09-13T12:02:49.691Z,25.44
2022-09-13T12:03:49.648Z,25.78
2022-09-13T12:05:04.868Z,25.06
2022-09-13T12:05:49.716Z,24.33
2022-09-13T12:06:49.614Z,23.11
2022-09-13T12:07:49.609Z,23.11
2022-09-13T12:08:49.612Z,23.83
2022-09-13T12:09:49.610Z,24
2022-09-13T12:10:49.619Z,23.67
2022-09-13T12:11:49.604Z,23.44
2022-09-13T12:12:49.612Z,24
2022-09-13T12:13:49.742Z,23.67
2022-09-13T12:14:49.611Z,24.33
2022-09-13T12:15:49.610Z,23.67
2022-09-13T12:16:49.619Z,23.83
2022-09-13T12:17:49.615Z,24
2022-09-13T12:18:49.608Z,25.22
2022-09-13T12:19:49.621Z,25.61
2022-09-13T12:20:49.615Z,25.44
2022-09-13T12:21:49.635Z,26.33
2022-09-13T12:22:49.611Z,26.56
2022-09-13T12:23:49.714Z,26
2022-09-13T12:24:49.614Z,25.78
2022-09-13T12:25:49.620Z,25.22
2022-09-13T12:26:49.611Z,24.67
2022-09-13T12:27:49.615Z,24.67
2022-09-13T12:28:49.615Z,25.78
2022-09-13T12:29:49.614Z,26.33
2022-09-13T12:30:49.624Z,25.78
2022-09-13T12:31:49.652Z,26.17
2022-09-13T12:32:49.608Z,26.89
2022-09-13T12:33:49.736Z,26.56
2022-09-13T12:34:49.618Z,26.33
2022-09-13T12:35:49.616Z,26.78
2022-09-13T12:36:49.611Z,26.22
2022-09-13T12:37:49.725Z,26.89
2022-09-13T12:38:49.622Z,26.72
2022-09-13T12:39:49.649Z,26.33
2022-09-13T12:40:49.625Z,26
2022-09-13T12:41:49.620Z,25.44
2022-09-13T12:42:49.616Z,26
2022-09-13T12:43:49.761Z,25.22
2022-09-13T12:44:49.621Z,25.44
2022-09-13T12:45:49.638Z,26.17
2022-09-13T12:46:49.629Z,26.56
2022-09-13T12:47:49.626Z,26.17
2022-09-13T12:48:49.612Z,26.33
2022-09-13T12:49:49.614Z,26.17
2022-09-13T12:50:49.627Z,26
2022-09-13T12:51:49.609Z,26
2022-09-13T12:52:49.625Z,26.72
2022-09-13T12:53:49.682Z,26.56
2022-09-13T12:54:49.619Z,26.56
2022-09-13T12:55:49.617Z,26.56
2022-09-13T12:56:51.660Z,26
2022-09-13T12:57:49.624Z,26.94
2022-09-13T12:58:49.624Z,26.89
2022-09-13T12:59:49.627Z,26.89
2022-09-13T13:00:49.660Z,26.56
2022-09-13T13:01:49.767Z,27.5
2022-09-13T13:02:53.804Z,28.56
2022-09-13T13:03:49.734Z,28.33
2022-09-13T13:04:49.629Z,28.11
2022-09-13T13:05:49.633Z,27.72
2022-09-13T13:06:49.636Z,27.39
2022-09-13T13:07:49.627Z,28.72
2022-09-13T13:08:49.636Z,28.72
2022-09-13T13:09:49.658Z,28.72
2022-09-13T13:10:49.628Z,28.72
2022-09-13T13:11:49.629Z,28.56